sensor_id;sensor_type;location;lat;lon;timestamp;pressure;altitude;pressure_sealevel;temperature;humidity
61682;BME280;47577;43.610;25.010;2023-05-13T00:00:04;100987.41;;;7.98;74.99
61682;BME280;47577;43.610;25.010;2023-05-13T00:02:30;100984.09;;;7.84;75.78
61682;BME280;47577;43.610;25.010;2023-05-13T00:04:56;100982.28;;;7.86;77.20
61682;BME280;47577;43.610;25.010;2023-05-13T00:07:22;100989.50;;;7.75;76.33
61682;BME280;47577;43.610;25.010;2023-05-13T00:09:48;100990.34;;;7.77;77.34
61682;BME280;47577;43.610;25.010;2023-05-13T00:12:13;100989.50;;;7.75;76.36
61682;BME280;47577;43.610;25.010;2023-05-13T00:14:39;101000.09;;;7.73;77.18
61682;BME280;47577;43.610;25.010;2023-05-13T00:17:05;100995.75;;;7.67;76.95
61682;BME280;47577;43.610;25.010;2023-05-13T00:19:30;100991.41;;;7.63;77.13
61682;BME280;47577;43.610;25.010;2023-05-13T00:21:56;100987.19;;;7.47;76.69
61682;BME280;47577;43.610;25.010;2023-05-13T00:24:22;100974.13;;;7.33;77.55
61682;BME280;47577;43.610;25.010;2023-05-13T00:26:47;100964.47;;;7.30;77.65
61682;BME280;47577;43.610;25.010;2023-05-13T00:29:14;100985.56;;;7.32;77.66
61682;BME280;47577;43.610;25.010;2023-05-13T00:31:39;100980.38;;;7.27;77.80
61682;BME280;47577;43.610;25.010;2023-05-13T00:34:05;100978.56;;;7.29;77.41
61682;BME280;47577;43.610;25.010;2023-05-13T00:36:31;100991.81;;;7.26;78.15
61682;BME280;47577;43.610;25.010;2023-05-13T00:38:56;100986.63;;;7.16;77.87
61682;BME280;47577;43.610;25.010;2023-05-13T00:41:22;101006.91;;;7.17;78.23
61682;BME280;47577;43.610;25.010;2023-05-13T00:43:48;101008.56;;;7.25;78.13
61682;BME280;47577;43.610;25.010;2023-05-13T00:46:14;101009.56;;;7.15;78.88
61682;BME280;47577;43.610;25.010;2023-05-13T00:48:40;101003.31;;;7.21;77.91
61682;BME280;47577;43.610;25.010;2023-05-13T00:51:06;101006.84;;;7.23;77.66
61682;BME280;47577;43.610;25.010;2023-05-13T00:53:32;101021.56;;;7.52;77.47
61682;BME280;47577;43.610;25.010;2023-05-13T00:55:58;101002.16;;;7.48;78.31
61682;BME280;47577;43.610;25.010;2023-05-13T00:58:24;101008.16;;;7.62;78.15
61682;BME280;47577;43.610;25.010;2023-05-13T01:01:14;101013.22;;;7.84;75.99
61682;BME280;47577;43.610;25.010;2023-05-13T01:03:56;101014.09;;;7.83;76.57
61682;BME280;47577;43.610;25.010;2023-05-13T01:12:28;101004.94;;;8.10;76.57
61682;BME280;47577;43.610;25.010;2023-05-13T01:15:15;101006.59;;;8.16;77.08
61682;BME280;47577;43.610;25.010;2023-05-13T01:20:29;101017.16;;;8.17;77.03
61682;BME280;47577;43.610;25.010;2023-05-13T01:22:55;101026.91;;;8.17;77.02
61682;BME280;47577;43.610;25.010;2023-05-13T01:25:22;101033.09;;;8.16;77.98
61682;BME280;47577;43.610;25.010;2023-05-13T01:27:48;101028.59;;;8.21;76.99
61682;BME280;47577;43.610;25.010;2023-05-13T01:30:15;101036.44;;;8.29;77.38
61682;BME280;47577;43.610;25.010;2023-05-13T01:32:41;101024.97;;;8.28;77.64
61682;BME280;47577;43.610;25.010;2023-05-13T01:35:08;101017.81;;;8.35;77.78
61682;BME280;47577;43.610;25.010;2023-05-13T01:37:35;101014.16;;;8.42;78.93
61682;BME280;47577;43.610;25.010;2023-05-13T01:40:02;101005.28;;;8.48;78.94
61682;BME280;47577;43.610;25.010;2023-05-13T01:42:28;101001.59;;;8.56;78.65
61682;BME280;47577;43.610;25.010;2023-05-13T01:44:54;101010.38;;;8.60;76.42
61682;BME280;47577;43.610;25.010;2023-05-13T01:47:20;101016.47;;;8.68;76.17
61682;BME280;47577;43.610;25.010;2023-05-13T01:49:46;101024.41;;;8.68;77.51
61682;BME280;47577;43.610;25.010;2023-05-13T01:52:12;101012.19;;;8.56;76.79
61682;BME280;47577;43.610;25.010;2023-05-13T01:54:37;101005.31;;;8.46;79.10
61682;BME280;47577;43.610;25.010;2023-05-13T01:57:03;101012.16;;;8.59;79.42
61682;BME280;47577;43.610;25.010;2023-05-13T01:59:29;101012.19;;;8.58;79.02
61682;BME280;47577;43.610;25.010;2023-05-13T02:01:54;100994.59;;;8.54;77.52
61682;BME280;47577;43.610;25.010;2023-05-13T02:04:20;101012.88;;;8.71;79.29
61682;BME280;47577;43.610;25.010;2023-05-13T02:06:46;101003.31;;;8.60;78.40
61682;BME280;47577;43.610;25.010;2023-05-13T02:09:12;101002.78;;;8.35;77.63
61682;BME280;47577;43.610;25.010;2023-05-13T02:11:38;101006.16;;;8.48;76.16
61682;BME280;47577;43.610;25.010;2023-05-13T02:14:04;100999.06;;;8.49;77.90
61682;BME280;47577;43.610;25.010;2023-05-13T02:16:30;101000.91;;;8.42;78.85
61682;BME280;47577;43.610;25.010;2023-05-13T02:18:56;101003.69;;;8.36;78.11
61682;BME280;47577;43.610;25.010;2023-05-13T02:21:21;101001.97;;;8.30;78.08
61682;BME280;47577;43.610;25.010;2023-05-13T02:23:47;101014.38;;;8.28;78.68
61682;BME280;47577;43.610;25.010;2023-05-13T02:26:13;101003.81;;;8.27;77.13
61682;BME280;47577;43.610;25.010;2023-05-13T02:28:38;101001.41;;;8.08;77.69
61682;BME280;47577;43.610;25.010;2023-05-13T02:31:04;100986.50;;;8.01;78.26
61682;BME280;47577;43.610;25.010;2023-05-13T02:33:31;100991.78;;;8.02;76.89
61682;BME280;47577;43.610;25.010;2023-05-13T02:35:56;100984.88;;;7.92;77.04
61682;BME280;47577;43.610;25.010;2023-05-13T02:38:22;101003.34;;;7.95;78.10
61682;BME280;47577;43.610;25.010;2023-05-13T02:40:47;101009.69;;;7.82;78.11
61682;BME280;47577;43.610;25.010;2023-05-13T02:43:13;101020.34;;;7.77;77.59
61682;BME280;47577;43.610;25.010;2023-05-13T02:45:39;101017.84;;;7.66;77.79
61682;BME280;47577;43.610;25.010;2023-05-13T02:48:06;101022.22;;;7.66;76.40
61682;BME280;47577;43.610;25.010;2023-05-13T02:50:32;101024.19;;;7.52;77.62
61682;BME280;47577;43.610;25.010;2023-05-13T02:52:57;101037.31;;;7.58;77.22
61682;BME280;47577;43.610;25.010;2023-05-13T02:55:23;101046.19;;;7.55;77.72
61682;BME280;47577;43.610;25.010;2023-05-13T02:57:48;101024.31;;;7.39;77.74
61682;BME280;47577;43.610;25.010;2023-05-13T03:00:14;101023.38;;;7.42;78.06
61682;BME280;47577;43.610;25.010;2023-05-13T03:02:40;101024.31;;;7.39;78.19
61682;BME280;47577;43.610;25.010;2023-05-13T03:05:06;101039.31;;;7.40;77.24
61682;BME280;47577;43.610;25.010;2023-05-13T03:07:32;101045.38;;;7.52;76.59
61682;BME280;47577;43.610;25.010;2023-05-13T03:09:57;101029.56;;;7.45;76.35
61682;BME280;47577;43.610;25.010;2023-05-13T03:12:23;101055.00;;;7.57;76.53
61682;BME280;47577;43.610;25.010;2023-05-13T03:14:49;101049.75;;;7.51;77.51
61682;BME280;47577;43.610;25.010;2023-05-13T03:17:14;101049.75;;;7.53;78.26
61682;BME280;47577;43.610;25.010;2023-05-13T03:19:40;101058.50;;;7.59;76.57
61682;BME280;47577;43.610;25.010;2023-05-13T03:22:06;101050.44;;;7.70;76.75
61682;BME280;47577;43.610;25.010;2023-05-13T03:24:31;101058.28;;;7.78;78.14
61682;BME280;47577;43.610;25.010;2023-05-13T03:26:57;101057.44;;;7.74;76.80
61682;BME280;47577;43.610;25.010;2023-05-13T03:29:23;101058.09;;;7.93;76.56
61682;BME280;47577;43.610;25.010;2023-05-13T03:31:49;101038.63;;;7.97;75.67
61682;BME280;47577;43.610;25.010;2023-05-13T03:34:15;101052.63;;;8.07;76.06
61682;BME280;47577;43.610;25.010;2023-05-13T03:36:41;101055.22;;;8.12;75.47
61682;BME280;47577;43.610;25.010;2023-05-13T03:39:06;101059.56;;;8.17;75.86
61682;BME280;47577;43.610;25.010;2023-05-13T03:41:32;101047.13;;;8.22;76.10
61682;BME280;47577;43.610;25.010;2023-05-13T03:43:58;101042.59;;;8.29;77.12
61682;BME280;47577;43.610;25.010;2023-05-13T03:46:24;101056.56;;;8.42;76.84
61682;BME280;47577;43.610;25.010;2023-05-13T03:48:52;101048.53;;;8.50;75.74
61682;BME280;47577;43.610;25.010;2023-05-13T03:51:20;101065.09;;;8.64;74.33
61682;BME280;47577;43.610;25.010;2023-05-13T03:53:46;101061.63;;;8.62;73.53
61682;BME280;47577;43.610;25.010;2023-05-13T03:56:12;101068.69;;;8.60;75.94
61682;BME280;47577;43.610;25.010;2023-05-13T03:58:38;101076.50;;;8.71;74.65
61682;BME280;47577;43.610;25.010;2023-05-13T04:01:04;101076.44;;;8.74;73.51
61682;BME280;47577;43.610;25.010;2023-05-13T04:03:29;101075.56;;;8.75;73.06
61682;BME280;47577;43.610;25.010;2023-05-13T04:05:55;101076.28;;;8.85;72.59
61682;BME280;47577;43.610;25.010;2023-05-13T04:08:21;101088.38;;;9.03;73.77
61682;BME280;47577;43.610;25.010;2023-05-13T04:10:46;101084.63;;;9.14;74.90
61682;BME280;47577;43.610;25.010;2023-05-13T04:13:12;101087.94;;;9.29;75.71
61682;BME280;47577;43.610;25.010;2023-05-13T04:15:38;101089.53;;;9.38;75.22
61682;BME280;47577;43.610;25.010;2023-05-13T04:18:03;101091.91;;;9.53;74.71
61682;BME280;47577;43.610;25.010;2023-05-13T04:20:29;101091.69;;;9.65;73.39
61682;BME280;47577;43.610;25.010;2023-05-13T04:22:55;101097.59;;;9.80;72.14
61682;BME280;47577;43.610;25.010;2023-05-13T04:25:21;101095.72;;;9.86;71.92
61682;BME280;47577;43.610;25.010;2023-05-13T04:27:46;101101.69;;;9.98;73.18
61682;BME280;47577;43.610;25.010;2023-05-13T04:30:12;101096.28;;;10.01;71.31
61682;BME280;47577;43.610;25.010;2023-05-13T04:32:38;101097.03;;;10.09;72.89
61682;BME280;47577;43.610;25.010;2023-05-13T04:35:07;101096.75;;;10.21;73.79
61682;BME280;47577;43.610;25.010;2023-05-13T04:37:33;101105.31;;;10.37;72.88
61682;BME280;47577;43.610;25.010;2023-05-13T04:39:58;101115.63;;;10.53;72.48
61682;BME280;47577;43.610;25.010;2023-05-13T04:42:24;101116.13;;;10.69;71.66
61682;BME280;47577;43.610;25.010;2023-05-13T04:44:50;101096.63;;;10.70;70.96
61682;BME280;47577;43.610;25.010;2023-05-13T04:47:15;101110.56;;;10.79;70.80
61682;BME280;47577;43.610;25.010;2023-05-13T04:49:41;101103.28;;;10.88;72.73
61682;BME280;47577;43.610;25.010;2023-05-13T04:52:07;101108.59;;;10.88;69.23
61682;BME280;47577;43.610;25.010;2023-05-13T04:54:33;101113.81;;;10.92;68.61
61682;BME280;47577;43.610;25.010;2023-05-13T04:57:01;101123.44;;;10.98;68.45
61682;BME280;47577;43.610;25.010;2023-05-13T04:59:26;101125.19;;;10.99;67.07
61682;BME280;47577;43.610;25.010;2023-05-13T05:01:52;101124.28;;;11.00;69.04
61682;BME280;47577;43.610;25.010;2023-05-13T05:04:19;101123.31;;;11.03;68.74
61682;BME280;47577;43.610;25.010;2023-05-13T05:06:44;101130.41;;;11.04;68.09
61682;BME280;47577;43.610;25.010;2023-05-13T05:09:10;101118.94;;;11.02;70.85
61682;BME280;47577;43.610;25.010;2023-05-13T05:11:37;101129.50;;;11.05;75.73
61682;BME280;47577;43.610;25.010;2023-05-13T05:14:02;101141.91;;;11.04;75.44
61682;BME280;47577;43.610;25.010;2023-05-13T05:16:28;101143.38;;;10.80;74.04
61682;BME280;47577;43.610;25.010;2023-05-13T05:18:54;101151.59;;;10.69;75.83
61682;BME280;47577;43.610;25.010;2023-05-13T05:21:19;101155.88;;;10.34;75.91
61682;BME280;47577;43.610;25.010;2023-05-13T05:23:45;101153.75;;;10.52;80.12
61682;BME280;47577;43.610;25.010;2023-05-13T05:26:11;101144.81;;;10.54;82.74
61682;BME280;47577;43.610;25.010;2023-05-13T05:28:37;101158.78;;;10.64;83.34
61682;BME280;47577;43.610;25.010;2023-05-13T05:31:04;101151.88;;;10.57;83.16
61682;BME280;47577;43.610;25.010;2023-05-13T05:33:30;101161.63;;;10.56;82.70
61682;BME280;47577;43.610;25.010;2023-05-13T05:35:56;101174.00;;;10.57;78.10
61682;BME280;47577;43.610;25.010;2023-05-13T05:38:22;101175.66;;;10.63;75.14
61682;BME280;47577;43.610;25.010;2023-05-13T05:40:49;101158.78;;;10.64;77.18
61682;BME280;47577;43.610;25.010;2023-05-13T05:43:15;101151.59;;;10.69;81.37
61682;BME280;47577;43.610;25.010;2023-05-13T05:45:41;101162.00;;;10.78;82.70
61682;BME280;47577;43.610;25.010;2023-05-13T05:48:07;101143.38;;;10.80;81.96
61682;BME280;47577;43.610;25.010;2023-05-13T05:50:33;101138.88;;;10.84;81.06
61682;BME280;47577;43.610;25.010;2023-05-13T05:52:59;101140.56;;;10.86;80.78
61682;BME280;47577;43.610;25.010;2023-05-13T05:55:25;101154.56;;;10.94;83.07
61682;BME280;47577;43.610;25.010;2023-05-13T05:57:52;101155.41;;;10.96;81.58
61682;BME280;47577;43.610;25.010;2023-05-13T06:00:18;101145.13;;;10.81;81.78
61682;BME280;47577;43.610;25.010;2023-05-13T06:02:44;101154.66;;;10.90;82.49
61682;BME280;47577;43.610;25.010;2023-05-13T06:05:10;101157.13;;;10.99;82.63
61682;BME280;47577;43.610;25.010;2023-05-13T06:07:36;101165.84;;;11.06;82.17
61682;BME280;47577;43.610;25.010;2023-05-13T06:10:02;101147.25;;;11.04;81.40
61682;BME280;47577;43.610;25.010;2023-05-13T06:12:28;101145.06;;;11.22;81.42
61682;BME280;47577;43.610;25.010;2023-05-13T06:14:53;101153.03;;;11.22;81.83
61682;BME280;47577;43.610;25.010;2023-05-13T06:17:19;101159.03;;;11.30;80.79
61682;BME280;47577;43.610;25.010;2023-05-13T06:19:45;101151.03;;;11.31;83.08
61682;BME280;47577;43.610;25.010;2023-05-13T06:22:11;101147.47;;;11.32;80.82
61682;BME280;47577;43.610;25.010;2023-05-13T06:24:37;101164.63;;;11.55;78.18
61682;BME280;47577;43.610;25.010;2023-05-13T06:27:04;101160.97;;;11.59;78.08
61682;BME280;47577;43.610;25.010;2023-05-13T06:29:30;101157.91;;;11.75;78.71
61682;BME280;47577;43.610;25.010;2023-05-13T06:31:56;101155.22;;;11.76;77.20
61682;BME280;47577;43.610;25.010;2023-05-13T06:34:21;101159.41;;;11.85;77.43
61682;BME280;47577;43.610;25.010;2023-05-13T06:36:47;101167.31;;;11.88;72.21
61682;BME280;47577;43.610;25.010;2023-05-13T06:39:13;101164.56;;;11.93;72.26
61682;BME280;47577;43.610;25.010;2023-05-13T06:41:39;101180.16;;;12.06;73.28
61682;BME280;47577;43.610;25.010;2023-05-13T06:44:05;101176.50;;;12.11;74.45
61682;BME280;47577;43.610;25.010;2023-05-13T06:46:32;101169.56;;;12.03;74.67
61682;BME280;47577;43.610;25.010;2023-05-13T06:48:58;101162.28;;;12.12;74.77
61682;BME280;47577;43.610;25.010;2023-05-13T06:51:24;101173.72;;;12.15;74.84
61682;BME280;47577;43.610;25.010;2023-05-13T06:53:54;101170.31;;;12.10;73.92
61682;BME280;47577;43.610;25.010;2023-05-13T06:56:20;101183.19;;;12.25;72.56
61682;BME280;47577;43.610;25.010;2023-05-13T06:58:51;101183.19;;;12.25;70.29
61682;BME280;47577;43.610;25.010;2023-05-13T07:01:17;101171.72;;;12.23;74.33
61682;BME280;47577;43.610;25.010;2023-05-13T07:03:43;101173.97;;;12.37;73.28
61682;BME280;47577;43.610;25.010;2023-05-13T07:06:09;101186.16;;;12.46;69.38
61682;BME280;47577;43.610;25.010;2023-05-13T07:08:35;101182.47;;;12.50;72.89
61682;BME280;47577;43.610;25.010;2023-05-13T07:11:00;101177.91;;;12.55;71.47
61682;BME280;47577;43.610;25.010;2023-05-13T07:13:26;101183.81;;;12.67;72.32
61682;BME280;47577;43.610;25.010;2023-05-13T07:15:52;101196.78;;;12.77;72.37
61682;BME280;47577;43.610;25.010;2023-05-13T07:18:17;101206.44;;;12.83;68.54
61682;BME280;47577;43.610;25.010;2023-05-13T07:20:43;101200.28;;;12.79;69.45
61682;BME280;47577;43.610;25.010;2023-05-13T07:23:08;101206.84;;;12.99;68.44
61682;BME280;47577;43.610;25.010;2023-05-13T07:25:34;101192.50;;;13.02;66.60
61682;BME280;47577;43.610;25.010;2023-05-13T07:28:00;101182.44;;;13.10;68.83
61682;BME280;47577;43.610;25.010;2023-05-13T07:30:25;101172.72;;;13.09;68.33
61682;BME280;47577;43.610;25.010;2023-05-13T07:32:51;101180.34;;;13.20;67.72
61682;BME280;47577;43.610;25.010;2023-05-13T07:35:17;101178.75;;;13.42;69.10
61682;BME280;47577;43.610;25.010;2023-05-13T07:37:43;101171.09;;;13.58;70.51
61682;BME280;47577;43.610;25.010;2023-05-13T07:40:09;101175.53;;;13.59;67.65
61682;BME280;47577;43.610;25.010;2023-05-13T07:42:36;101192.78;;;13.76;70.54
61682;BME280;47577;43.610;25.010;2023-05-13T07:45:02;101191.84;;;13.77;64.92
61682;BME280;47577;43.610;25.010;2023-05-13T07:47:28;101177.63;;;13.76;67.34
61682;BME280;47577;43.610;25.010;2023-05-13T07:49:56;101184.16;;;13.93;67.53
61682;BME280;47577;43.610;25.010;2023-05-13T07:52:22;101184.16;;;13.93;64.30
61682;BME280;47577;43.610;25.010;2023-05-13T07:54:48;101191.50;;;14.13;67.30
61682;BME280;47577;43.610;25.010;2023-05-13T07:57:14;101192.63;;;14.31;63.95
61682;BME280;47577;43.610;25.010;2023-05-13T07:59:40;101198.19;;;14.24;65.96
61682;BME280;47577;43.610;25.010;2023-05-13T08:02:05;101193.91;;;14.19;65.50
61682;BME280;47577;43.610;25.010;2023-05-13T08:04:32;101205.94;;;14.07;60.30
61682;BME280;47577;43.610;25.010;2023-05-13T08:06:59;101206.94;;;14.04;59.25
61682;BME280;47577;43.610;25.010;2023-05-13T08:09:25;101206.53;;;14.15;62.16
61682;BME280;47577;43.610;25.010;2023-05-13T08:11:51;101194.91;;;14.16;63.10
61682;BME280;47577;43.610;25.010;2023-05-13T08:14:16;101190.31;;;14.20;64.43
61682;BME280;47577;43.610;25.010;2023-05-13T08:16:42;101195.06;;;14.37;63.04
61682;BME280;47577;43.610;25.010;2023-05-13T08:19:08;101195.13;;;14.59;66.61
61682;BME280;47577;43.610;25.010;2023-05-13T08:21:34;101184.81;;;14.73;67.55
61682;BME280;47577;43.610;25.010;2023-05-13T08:23:59;101189.97;;;15.02;64.84
61682;BME280;47577;43.610;25.010;2023-05-13T08:26:25;101190.59;;;14.85;56.82
61682;BME280;47577;43.610;25.010;2023-05-13T08:28:51;101181.78;;;14.83;61.74
61682;BME280;47577;43.610;25.010;2023-05-13T08:31:17;101186.03;;;15.10;62.08
61682;BME280;47577;43.610;25.010;2023-05-13T08:33:43;101185.47;;;15.24;63.05
61682;BME280;47577;43.610;25.010;2023-05-13T08:36:11;101200.00;;;15.41;63.50
61682;BME280;47577;43.610;25.010;2023-05-13T08:38:37;101188.13;;;15.46;59.40
61682;BME280;47577;43.610;25.010;2023-05-13T08:41:03;101184.00;;;15.60;61.54
61682;BME280;47577;43.610;25.010;2023-05-13T08:43:30;101189.56;;;15.76;60.81
61682;BME280;47577;43.610;25.010;2023-05-13T08:46:02;101179.34;;;15.85;59.07
61682;BME280;47577;43.610;25.010;2023-05-13T08:48:28;101193.88;;;16.21;57.85
61682;BME280;47577;43.610;25.010;2023-05-13T08:50:55;101184.31;;;16.15;57.42
61682;BME280;47577;43.610;25.010;2023-05-13T08:53:23;101191.22;;;16.21;56.58
61682;BME280;47577;43.610;25.010;2023-05-13T08:55:50;101180.47;;;16.21;55.16
61682;BME280;47577;43.610;25.010;2023-05-13T08:58:16;101172.81;;;16.32;54.96
61682;BME280;47577;43.610;25.010;2023-05-13T09:00:42;101171.59;;;16.58;56.00
61682;BME280;47577;43.610;25.010;2023-05-13T09:03:08;101176.78;;;16.82;57.18
61682;BME280;47577;43.610;25.010;2023-05-13T09:05:34;101174.69;;;17.08;55.88
61682;BME280;47577;43.610;25.010;2023-05-13T09:08:05;101176.47;;;17.44;51.30
61682;BME280;47577;43.610;25.010;2023-05-13T09:10:32;101162.09;;;17.45;50.93
61682;BME280;47577;43.610;25.010;2023-05-13T09:12:58;101154.03;;;17.62;53.45
61682;BME280;47577;43.610;25.010;2023-05-13T09:15:27;101155.78;;;17.63;47.91
61682;BME280;47577;43.610;25.010;2023-05-13T09:18:02;101167.47;;;17.80;52.95
61682;BME280;47577;43.610;25.010;2023-05-13T09:20:28;101167.56;;;17.78;51.43
61682;BME280;47577;43.610;25.010;2023-05-13T09:23:08;101172.50;;;17.87;49.40
61682;BME280;47577;43.610;25.010;2023-05-13T09:25:36;101170.31;;;17.77;45.36
61682;BME280;47577;43.610;25.010;2023-05-13T09:28:03;101175.41;;;18.00;51.39
61682;BME280;47577;43.610;25.010;2023-05-13T09:30:31;101176.41;;;18.33;50.18
61682;BME280;47577;43.610;25.010;2023-05-13T09:33:13;101171.56;;;18.55;51.06
61682;BME280;47577;43.610;25.010;2023-05-13T09:35:41;101165.31;;;18.71;46.72
61682;BME280;47577;43.610;25.010;2023-05-13T09:40:52;101175.38;;;19.00;43.04
61682;BME280;47577;43.610;25.010;2023-05-13T09:43:25;101159.91;;;19.04;46.66
61682;BME280;47577;43.610;25.010;2023-05-13T09:45:56;101165.81;;;18.95;43.96
61682;BME280;47577;43.610;25.010;2023-05-13T09:48:24;101160.88;;;18.54;42.86
61682;BME280;47577;43.610;25.010;2023-05-13T09:50:50;101162.53;;;18.40;47.62
61682;BME280;47577;43.610;25.010;2023-05-13T09:53:16;101160.53;;;18.44;45.04
61682;BME280;47577;43.610;25.010;2023-05-13T09:55:45;101158.78;;;18.43;47.01
61682;BME280;47577;43.610;25.010;2023-05-13T09:58:11;101157.09;;;18.58;45.10
61682;BME280;47577;43.610;25.010;2023-05-13T10:00:39;101157.88;;;18.76;44.57
61682;BME280;47577;43.610;25.010;2023-05-13T10:03:06;101160.88;;;18.87;45.46
61682;BME280;47577;43.610;25.010;2023-05-13T10:05:32;101150.41;;;19.13;44.11
61682;BME280;47577;43.610;25.010;2023-05-13T10:08:01;101157.84;;;19.40;42.43
61682;BME280;47577;43.610;25.010;2023-05-13T10:10:29;101146.78;;;19.44;42.86
61682;BME280;47577;43.610;25.010;2023-05-13T10:12:58;101149.44;;;19.60;43.98
61682;BME280;47577;43.610;25.010;2023-05-13T10:15:25;101145.59;;;19.64;40.94
61682;BME280;47577;43.610;25.010;2023-05-13T10:17:51;101139.72;;;19.88;41.78
61682;BME280;47577;43.610;25.010;2023-05-13T10:20:17;101138.09;;;20.00;40.93
61682;BME280;47577;43.610;25.010;2023-05-13T10:22:43;101132.19;;;19.93;40.79
61682;BME280;47577;43.610;25.010;2023-05-13T10:25:09;101149.94;;;20.12;40.75
61682;BME280;47577;43.610;25.010;2023-05-13T10:27:37;101157.94;;;19.99;42.44
61682;BME280;47577;43.610;25.010;2023-05-13T10:30:04;101150.13;;;19.80;42.13
61682;BME280;47577;43.610;25.010;2023-05-13T10:32:35;101145.41;;;19.98;41.02
61682;BME280;47577;43.610;25.010;2023-05-13T10:35:11;101142.66;;;20.28;39.61
61682;BME280;47577;43.610;25.010;2023-05-13T10:40:27;101150.44;;;20.47;40.45
61682;BME280;47577;43.610;25.010;2023-05-13T10:43:12;101150.16;;;20.66;38.47
61682;BME280;47577;43.610;25.010;2023-05-13T10:45:49;101140.72;;;20.44;39.83
61682;BME280;47577;43.610;25.010;2023-05-13T10:48:17;101144.25;;;20.45;38.42
61682;BME280;47577;43.610;25.010;2023-05-13T10:50:56;101141.56;;;20.59;39.55
61682;BME280;47577;43.610;25.010;2023-05-13T10:53:29;101144.66;;;20.68;36.75
61682;BME280;47577;43.610;25.010;2023-05-13T10:55:59;101146.78;;;20.77;33.97
61682;BME280;47577;43.610;25.010;2023-05-13T10:58:30;101141.00;;;20.69;33.94
61682;BME280;47577;43.610;25.010;2023-05-13T11:01:17;101140.22;;;21.08;36.07
61682;BME280;47577;43.610;25.010;2023-05-13T11:03:54;101138.47;;;20.80;34.76
61682;BME280;47577;43.610;25.010;2023-05-13T11:06:34;101126.53;;;21.24;37.34
61682;BME280;47577;43.610;25.010;2023-05-13T11:09:00;101128.38;;;21.24;36.73
61682;BME280;47577;43.610;25.010;2023-05-13T11:11:30;101131.19;;;21.22;36.89
61682;BME280;47577;43.610;25.010;2023-05-13T11:14:19;101136.16;;;21.28;34.78
61682;BME280;47577;43.610;25.010;2023-05-13T11:19:29;101129.16;;;22.04;34.36
61682;BME280;47577;43.610;25.010;2023-05-13T11:21:57;101124.31;;;22.09;33.02
61682;BME280;47577;43.610;25.010;2023-05-13T11:24:23;101126.69;;;22.14;33.43
61682;BME280;47577;43.610;25.010;2023-05-13T11:26:54;101127.25;;;22.19;34.64
61682;BME280;47577;43.610;25.010;2023-05-13T11:29:33;101125.81;;;22.26;32.88
61682;BME280;47577;43.610;25.010;2023-05-13T11:32:02;101125.72;;;22.41;33.56
61682;BME280;47577;43.610;25.010;2023-05-13T11:34:29;101120.28;;;21.77;30.26
61682;BME280;47577;43.610;25.010;2023-05-13T11:39:23;101125.13;;;21.31;32.64
61682;BME280;47577;43.610;25.010;2023-05-13T11:41:52;101121.72;;;21.82;33.21
61682;BME280;47577;43.610;25.010;2023-05-13T11:44:23;101130.81;;;22.20;30.69
61682;BME280;47577;43.610;25.010;2023-05-13T11:46:54;101130.81;;;22.33;28.56
61682;BME280;47577;43.610;25.010;2023-05-13T11:49:44;101131.56;;;22.35;30.03
61682;BME280;47577;43.610;25.010;2023-05-13T11:52:16;101130.34;;;22.64;30.62
61682;BME280;47577;43.610;25.010;2023-05-13T11:54:48;101120.00;;;22.82;28.87
61682;BME280;47577;43.610;25.010;2023-05-13T11:59:49;101123.91;;;23.03;30.73
61682;BME280;47577;43.610;25.010;2023-05-13T12:02:17;101119.66;;;22.87;29.99
61682;BME280;47577;43.610;25.010;2023-05-13T12:04:44;101126.03;;;22.49;29.32
61682;BME280;47577;43.610;25.010;2023-05-13T12:07:13;101115.88;;;23.01;29.53
61682;BME280;47577;43.610;25.010;2023-05-13T12:09:43;101120.09;;;23.18;31.26
61682;BME280;47577;43.610;25.010;2023-05-13T12:12:09;101116.06;;;23.35;30.72
61682;BME280;47577;43.610;25.010;2023-05-13T12:14:34;101121.19;;;23.15;30.31
61682;BME280;47577;43.610;25.010;2023-05-13T12:17:01;101109.56;;;23.38;29.64
61682;BME280;47577;43.610;25.010;2023-05-13T12:19:26;101106.00;;;23.48;28.47
61682;BME280;47577;43.610;25.010;2023-05-13T12:21:52;101116.94;;;23.71;28.42
61682;BME280;47577;43.610;25.010;2023-05-13T12:24:19;101104.97;;;23.73;28.75
61682;BME280;47577;43.610;25.010;2023-05-13T12:26:46;101108.25;;;23.54;30.12
61682;BME280;47577;43.610;25.010;2023-05-13T12:29:11;101091.34;;;23.86;28.13
61682;BME280;47577;43.610;25.010;2023-05-13T12:31:37;101090.66;;;23.71;28.11
61682;BME280;47577;43.610;25.010;2023-05-13T12:34:03;101086.59;;;23.77;28.88
61682;BME280;47577;43.610;25.010;2023-05-13T12:36:30;101094.72;;;23.77;26.97
61682;BME280;47577;43.610;25.010;2023-05-13T12:39:07;101087.22;;;23.34;26.62
61682;BME280;47577;43.610;25.010;2023-05-13T12:41:38;101078.91;;;23.24;28.75
61682;BME280;47577;43.610;25.010;2023-05-13T12:44:08;101080.72;;;23.48;29.88
61682;BME280;47577;43.610;25.010;2023-05-13T12:46:35;101084.81;;;23.65;28.70
61682;BME280;47577;43.610;25.010;2023-05-13T12:49:03;101084.59;;;23.79;27.88
61682;BME280;47577;43.610;25.010;2023-05-13T12:51:29;101075.16;;;23.85;30.38
61682;BME280;47577;43.610;25.010;2023-05-13T12:53:55;101061.91;;;23.80;28.14
61682;BME280;47577;43.610;25.010;2023-05-13T12:56:21;101071.41;;;23.74;27.77
61682;BME280;47577;43.610;25.010;2023-05-13T12:58:48;101069.97;;;23.93;28.88
61682;BME280;47577;43.610;25.010;2023-05-13T13:01:15;101064.06;;;23.88;29.13
61682;BME280;47577;43.610;25.010;2023-05-13T13:03:41;101068.50;;;24.00;28.48